x

Boston 16 Nm East Of Boston, Ma (44013) Wave Buoy

6:50 - Sat 22nd Jul 2017 All times are EDT. -4 hours from GMT.

  • Sig Wave height 1.0ft
  • Swell Direction
  • Peak Period 11s
  • Average Period 6s
  • Wind
    7mph, 9mph gusts
  • Sea Temp 69°f
  • Air Temp 70°f
  • Sea Pressure 1010.3mb
  • Boston 16 Nm East Of Boston, Ma
  • Boston 16 Nm East Of Boston, Ma

More Historic Weather Station data

Upgrade to MSW Pro to gain access to the past 30 days of data for over 8000 Wavebouys and Weather Stations around the globe.

Join Pro

Comparision Forecast

View Surf forecast
   
sam. 07/22 6:50 1ft 11s 6s 7 9 mph 1010.3mb 69f 70f
5:50 1ft 11s 4s 7 7 mph 1009.8mb 69f 71f
4:50 1ft 12s 4s 11 11 mph 1009.6mb 69f 71f
3:50 1ft 14s 4s 13 13 mph 1009.6mb 69f 71f
2:50 1ft 11s 4s 13 16 mph 1009.3mb 69f 72f
1:50 1ft 14s 4s 11 13 mph 1009.1mb 69f 73f
12:50 0.7ft  -  5s 13 13 mph 1009mb 70f 73f
ven. 07/21 11:50 1ft 11s 5s 11 13 mph 1008.8mb 70f 74f
10:50 1ft 14s 4s 11 11 mph 1008.7mb 71f 74f
9:50 1.3ft 3s 3s 11 11 mph 1008.6mb 71f 74f
8:50 1.3ft 5s 5s 13 13 mph 1008.3mb 71f 77f
7:50 1.3ft 6s 5s 9 9 mph 1007.8mb 72f 77f
6:50 1.3ft 11s 4s 9 11 mph 1007.6mb 72f 74f
5:50 1ft 6s 4s 11 13 mph 1007.8mb 72f 75f
4:50 1ft 11s 5s 9 11 mph 1008.1mb 73f 74f
3:50 1ft 11s 5s 9 9 mph 1008.5mb 73f 76f
2:50 1ft 12s 5s 2 2 mph 1008.7mb 75f 82f
1:50 1ft 11s 5s 4 4 mph 1009.5mb 73f 78f
12:50 1ft 12s 6s 4 4 mph 1009.9mb 72f 76f
8:50 1ft 14s 5s 7 9 mph 1010.3mb 69f 70f
7:50 1ft 14s 6s 9 11 mph 1010.3mb 69f 71f
6:50 1ft 14s 6s 7 7 mph 1010.1mb 68f 71f
5:50 1ft 11s 6s 9 9 mph 1010mb 68f 70f
4:50 1ft 15s 7s 9 9 mph 1009.8mb 68f 71f
3:50 1ft 12s 6s 9 9 mph 1009.3mb 70f 72f
2:50 1ft 15s 6s 2 2 mph 1009.1mb 70f 73f
1:50 1ft 13s 6s 4 4 mph 1009.3mb 71f 73f
12:50 1ft 11s 5s 4 4 mph 1009.4mb 71f 74f
jeu. 07/20 11:50 1ft 12s 5s 7 7 mph 1009.5mb 71f 75f
10:50 1ft 11s 5s 2 2 mph 1009.5mb 71f 76f
9:50 1.3ft 14s 6s 2 7 mph 1009.8mb 72f 81f
8:50 1ft 13s 6s 4 7 mph 1009.5mb 71f 76f
5:50 1ft 11s 6s 9 11 mph 1009.4mb 72f 74f
4:50 1ft 15s 5s 11 13 mph 1009.9mb 73f 76f
3:50 1ft 15s 6s 13 13 mph 1010.4mb 73f 76f
2:50 1ft 12s 5s 9 9 mph 1011.2mb 74f 76f
1:50 1ft 15s 5s 7 9 mph 1011.8mb 74f 76f
12:50 1ft 11s 6s 7 7 mph 1012.8mb 74f 76f
11:50 1ft 12s 6s 2 2 mph 1013mb 73f 81f
10:50 1ft 15s 6s 7 7 mph 1013.2mb 72f 76f
9:50 1.3ft 15s 6s 7 7 mph 1013.5mb 71f 73f
8:50 1.3ft 14s 5s 7 7 mph 1013.7mb 70f 72f
7:50 1.3ft 14s 6s 4 7 mph 1013.9mb 70f 72f
6:50 1.3ft 5s 6s 4 7 mph 1013.6mb 70f 72f
5:50 1.3ft 6s 6s 9 9 mph 1013.4mb 70f 72f
4:50 1.3ft 6s 6s 7 9 mph 1013.5mb 70f 71f
3:50 1.3ft 6s 6s 7 9 mph 1013.4mb 70f 71f
2:50 1.3ft 12s 6s 7 9 mph 1013.6mb 70f 73f
1:50 1ft 16s 5s 9 9 mph 1013.7mb 71f 73f
12:50 1.3ft 11s 5s 9 9 mph 1013.9mb 71f 73f
mer. 07/19 11:50 1.3ft 16s 5s 7 9 mph 1013.9mb 70f 73f
10:50 1.3ft 16s 5s 7 7 mph 1014mb 70f 73f
9:50 1.3ft 12s 5s 9 9 mph 1013.6mb 70f 74f
8:50 1.3ft 16s 5s 7 7 mph 1012.9mb 70f 77f
7:50 1.6ft 15s 5s 9 9 mph 1012.5mb 70f 77f
6:50 1.6ft 15s 5s 4 4 mph 1012.2mb 70f 79f
5:50 1.3ft 5s 5s 4 7 mph 1012.3mb 70f 77f
4:50 1.3ft 6s 5s 7 9 mph 1012.6mb 70f 72f
3:50 1.3ft 7s 6s 9 11 mph 1013mb 70f 72f
2:50 1.3ft 7s 6s 9 11 mph 1013.6mb 70f 73f
1:50 1.3ft 7s 6s 11 13 mph 1014.1mb 69f 71f
12:50 1.3ft 16s 6s 11 11 mph 1015mb 70f 71f
11:50 1.3ft 8s 5s 9 11 mph 1015.7mb 70f 71f
10:50 1.3ft 16s 6s 7 7 mph 1016.2mb 70f 70f
9:50 1.3ft 11s 6s 4 7 mph 1016.4mb 70f 70f
8:50 1.6ft 13s 6s 4 4 mph 1016.6mb 69f 69f
7:50 1.6ft 16s 6s 4 4 mph 1016.8mb 69f 70f
6:50 1.3ft 13s 6s 2 2 mph 1016.7mb 69f 70f
5:50 1.3ft 16s 6s 4 7 mph 1016.7mb 68f 69f
4:50 1.3ft 6s 6s 4 7 mph 1016.8mb 68f 70f
3:50 1.3ft 8s 6s 4 4 mph 1016.7mb 68f 69f
2:50 1.3ft 7s 6s 4 4 mph 1016.7mb 67f 69f
1:50 1.3ft 8s 5s 7 7 mph 1017mb 67f 69f
12:50 1.3ft 8s 5s 9 9 mph 1017.2mb 68f 69f
mar. 07/18 11:50 1.3ft 13s 5s 13 13 mph 1017.3mb 68f 69f
10:50 1.6ft 9s 5s 13 13 mph 1017.3mb 68f 69f
9:50 1.6ft 9s 5s 11 11 mph 1017.8mb 68f 70f
8:50 1.6ft 13s 5s 7 9 mph 1017.3mb 68f 74f
7:50 1.6ft 17s 5s 2 4 mph 1017.3mb 68f 70f
6:50 2ft 8s 4s 4 4 mph 1016.9mb 68f 72f
5:50 1.6ft 9s 4s 13 16 mph 1016.2mb 68f 71f
4:50 1.6ft 8s 5s 11 13 mph 1016.6mb 68f 70f
3:50 1.6ft 7s 5s 9 11 mph 1017.1mb 68f 69f
2:50 1.3ft 8s 6s 9 11 mph 1017.8mb 67f 70f
1:50 1.3ft 7s 6s 9 9 mph 1018.4mb 68f 69f